Time;durP1;ratioP1;P1;durP2;ratioP2;P2;SDS_P1;SDS_P2;PMS_P1;PMS_P2;Temp;Humidity;BMP_temperature;BMP_pressure;BME280_temperature;BME280_humidity;BME280_pressure;Samples;Min_cycle;Max_cycle;Signal;HPM_P1;HPM_P2
2023/08/16 00:00:15;;;;;;;8.17;6.87;;;18.40;99.90;;;;;;2081486;28;20201;-81
2023/08/16 00:01:16;;;;;;;8.33;6.80;;;18.40;99.90;;;;;;2081401;28;20190;-81
2023/08/16 00:02:17;;;;;;;8.13;6.73;;;18.30;99.90;;;;;;2084849;28;20430;-81
2023/08/16 00:03:17;;;;;;;7.90;6.17;;;18.40;99.90;;;;;;2081205;28;20487;-81
2023/08/16 00:04:18;;;;;;;8.67;7.07;;;18.40;99.90;;;;;;2085367;28;20193;-81
2023/08/16 00:05:19;;;;;;;7.60;6.67;;;18.40;99.90;;;;;;2077208;28;20173;-82
2023/08/16 00:06:20;;;;;;;7.07;5.90;;;18.40;99.90;;;;;;2073662;28;20456;-82
2023/08/16 00:07:21;;;;;;;7.60;6.10;;;18.40;99.90;;;;;;2079854;28;20241;-81
2023/08/16 00:08:21;;;;;;;6.70;6.10;;;18.40;99.90;;;;;;2085468;28;20327;-82
2023/08/16 00:09:22;;;;;;;9.07;6.67;;;18.20;99.90;;;;;;2080976;28;20237;-81
2023/08/16 00:10:23;;;;;;;7.47;6.53;;;18.20;99.90;;;;;;2077191;28;20238;-82
2023/08/16 00:11:24;;;;;;;8.83;7.07;;;18.30;99.90;;;;;;2077256;28;20214;-82
2023/08/16 00:12:25;;;;;;;8.97;7.03;;;18.10;99.90;;;;;;2085293;28;20256;-82
2023/08/16 00:13:26;;;;;;;10.30;7.30;;;18.10;99.90;;;;;;2085374;28;20453;-81
2023/08/16 00:14:26;;;;;;;7.70;6.30;;;18.20;99.90;;;;;;2079422;28;20249;-81
2023/08/16 00:15:27;;;;;;;7.97;5.90;;;18.20;99.90;;;;;;2076771;28;20237;-81
2023/08/16 00:16:28;;;;;;;8.70;6.53;;;18.20;99.90;;;;;;2071774;28;20298;-81
2023/08/16 00:17:29;;;;;;;7.97;6.20;;;18.20;99.90;;;;;;2073131;28;20268;-81
2023/08/16 00:18:30;;;;;;;6.90;5.83;;;18.20;99.90;;;;;;2073090;28;20241;-82
2023/08/16 00:19:30;;;;;;;5.80;5.30;;;18.10;99.90;;;;;;2066769;28;20256;-81
2023/08/16 00:20:31;;;;;;;7.17;5.80;;;18.10;99.90;;;;;;2061833;28;20487;-83
2023/08/16 00:21:32;;;;;;;8.40;6.97;;;18.10;99.90;;;;;;2072111;28;20819;-83
2023/08/16 00:22:33;;;;;;;9.90;6.90;;;18.10;99.90;;;;;;2075512;28;20239;-83
2023/08/16 00:23:33;;;;;;;7.33;6.47;;;18.10;99.90;;;;;;2071465;28;20573;-82
2023/08/16 00:24:34;;;;;;;6.93;6.07;;;18.10;99.90;;;;;;2071788;28;20225;-82
2023/08/16 00:25:35;;;;;;;9.40;6.33;;;18.20;99.90;;;;;;2070824;28;20241;-82
2023/08/16 00:26:35;;;;;;;9.17;6.03;;;18.10;99.90;;;;;;2061613;28;20725;-82
2023/08/16 00:27:36;;;;;;;7.03;5.63;;;18.10;99.90;;;;;;2061509;28;20230;-81
2023/08/16 00:28:37;;;;;;;5.93;5.43;;;18.00;99.90;;;;;;2061495;28;20238;-81
2023/08/16 00:29:37;;;;;;;9.37;6.43;;;18.00;99.90;;;;;;2061663;28;20223;-81
2023/08/16 00:30:38;;;;;;;7.03;6.33;;;17.90;99.90;;;;;;2072879;28;20233;-81
2023/08/16 00:31:40;;;;;;;6.70;6.00;;;18.00;99.90;;;;;;2072351;28;20225;-80
2023/08/16 00:32:41;;;;;;;7.23;5.83;;;18.00;99.90;;;;;;2063409;28;20235;-81
2023/08/16 00:33:41;;;;;;;6.90;6.20;;;18.00;99.90;;;;;;2062695;28;20813;-81
2023/08/16 00:34:42;;;;;;;9.03;6.70;;;18.00;99.90;;;;;;2062188;28;20482;-82
2023/08/16 00:35:43;;;;;;;7.10;6.40;;;18.10;99.90;;;;;;2061456;28;20702;-81
2023/08/16 00:36:43;;;;;;;6.90;6.20;;;18.00;99.90;;;;;;2053084;28;20235;-81
2023/08/16 00:37:44;;;;;;;8.00;5.60;;;18.00;99.90;;;;;;2065282;28;20230;-81
2023/08/16 00:38:45;;;;;;;5.93;5.43;;;18.00;99.90;;;;;;2075905;28;20324;-80
2023/08/16 00:39:46;;;;;;;7.43;5.87;;;18.00;99.90;;;;;;2073273;28;20689;-82
2023/08/16 00:40:52;;;;;;;6.57;5.90;;;17.80;99.90;;;;;;2056960;28;20227;-81
2023/08/16 00:41:53;;;;;;;7.10;6.10;;;17.80;99.90;;;;;;2064029;28;20223;-81
2023/08/16 00:42:54;;;;;;;8.67;6.67;;;17.90;99.90;;;;;;2081004;28;20491;-81
2023/08/16 00:43:54;;;;;;;8.87;6.27;;;17.90;99.90;;;;;;2070725;28;20222;-81
2023/08/16 00:44:55;;;;;;;7.90;6.57;;;17.90;99.90;;;;;;2062156;28;20606;-80
2023/08/16 00:45:56;;;;;;;9.40;6.47;;;17.80;99.90;;;;;;2071768;28;20257;-81
2023/08/16 00:46:57;;;;;;;9.67;7.07;;;17.80;99.90;;;;;;2072939;28;20744;-82
2023/08/16 00:47:57;;;;;;;10.00;6.63;;;17.80;99.90;;;;;;2072904;28;20754;-81
2023/08/16 00:48:58;;;;;;;7.33;6.63;;;17.80;99.90;;;;;;2069400;28;20321;-81
2023/08/16 00:49:59;;;;;;;6.80;6.00;;;17.80;99.90;;;;;;2069314;28;20230;-82
2023/08/16 00:51:01;;;;;;;9.00;6.53;;;17.90;99.90;;;;;;2070653;28;20672;-82
2023/08/16 00:52:02;;;;;;;9.20;6.97;;;17.80;99.90;;;;;;2070974;28;21084;-82
2023/08/16 00:53:03;;;;;;;11.43;7.67;;;17.80;99.90;;;;;;2073229;28;20518;-80
2023/08/16 00:54:05;;;;;;;7.60;6.77;;;17.80;99.90;;;;;;2072884;28;20434;-80
2023/08/16 00:55:08;;;;;;;10.50;7.47;;;17.80;99.90;;;;;;2076687;28;20188;-81
2023/08/16 00:56:08;;;;;;;7.50;6.70;;;17.80;99.90;;;;;;2065079;28;20420;-82
2023/08/16 00:57:09;;;;;;;8.30;6.53;;;17.90;99.90;;;;;;2057141;28;20468;-81
2023/08/16 00:58:10;;;;;;;9.57;7.50;;;17.80;99.90;;;;;;2068950;28;20198;-81
2023/08/16 00:59:11;;;;;;;8.03;6.83;;;17.80;99.90;;;;;;2073009;28;20218;-81
2023/08/16 01:00:12;;;;;;;6.63;5.70;;;17.80;99.90;;;;;;2070912;28;20212;-81
2023/08/16 01:01:13;;;;;;;8.73;6.33;;;17.80;99.90;;;;;;2070847;28;20238;-82
2023/08/16 01:02:15;;;;;;;8.27;6.77;;;17.70;99.90;;;;;;2077137;28;20854;-81
2023/08/16 01:03:15;;;;;;;9.23;7.10;;;17.60;99.90;;;;;;2072026;28;20455;-82
2023/08/16 01:04:16;;;;;;;8.20;7.40;;;17.70;99.90;;;;;;2071886;28;20784;-82
2023/08/16 01:05:17;;;;;;;8.80;6.87;;;17.80;99.90;;;;;;2072699;28;20642;-83
2023/08/16 01:06:18;;;;;;;7.87;6.30;;;17.70;99.90;;;;;;2051562;28;20198;-82
2023/08/16 01:07:19;;;;;;;7.13;6.23;;;17.80;99.90;;;;;;2047839;28;20496;-82
2023/08/16 01:08:19;;;;;;;8.17;7.20;;;17.70;99.90;;;;;;2061541;28;20288;-83
2023/08/16 01:09:20;;;;;;;9.03;6.67;;;17.70;99.90;;;;;;2067632;28;22584;-81
2023/08/16 01:10:42;;;;;;;6.93;6.27;;;17.70;99.90;;;;;;2078848;28;20233;-81
2023/08/16 01:12:01;;;;;;;9.33;6.07;;;17.70;99.90;;;;;;2074770;28;20313;-82
2023/08/16 01:13:11;;;;;;;7.60;6.57;;;17.60;99.90;;;;;;2071422;28;20454;-82
2023/08/16 01:14:25;;;;;;;9.37;6.67;;;17.70;99.90;;;;;;2073193;28;20407;-82
2023/08/16 01:15:32;;;;;;;6.90;6.20;;;17.60;99.90;;;;;;2066019;28;20471;-82
2023/08/16 01:16:36;;;;;;;8.17;6.67;;;17.70;99.90;;;;;;2065678;28;20850;-82
2023/08/16 01:17:39;;;;;;;8.50;6.70;;;17.60;99.90;;;;;;2058256;28;20531;-83
2023/08/16 01:18:41;;;;;;;9.53;7.20;;;17.60;99.90;;;;;;2068894;28;20976;-81
2023/08/16 01:19:44;;;;;;;7.73;6.67;;;17.70;99.90;;;;;;2071949;28;20502;-81
2023/08/16 01:20:48;;;;;;;9.30;6.30;;;17.70;99.90;;;;;;2072307;28;20605;-81
2023/08/16 01:22:25;;;;;;;11.83;7.67;;;17.60;99.90;;;;;;2072601;28;20467;-81
2023/08/16 01:24:13;;;;;;;10.50;6.90;;;17.70;99.90;;;;;;2051867;28;20477;-81
2023/08/16 01:25:23;;;;;;;6.70;6.00;;;17.70;99.90;;;;;;2066083;28;20447;-82
2023/08/16 01:26:30;;;;;;;9.10;6.27;;;17.70;99.90;;;;;;2072089;28;20458;-82
2023/08/16 01:27:32;;;;;;;7.90;7.10;;;17.60;99.90;;;;;;2064145;28;20509;-81
2023/08/16 01:28:35;;;;;;;7.40;6.20;;;17.70;99.90;;;;;;2056658;28;20547;-83
2023/08/16 01:29:36;;;;;;;9.87;6.97;;;17.60;99.90;;;;;;2064745;28;20490;-83
2023/08/16 01:30:40;;;;;;;9.37;6.67;;;17.60;99.90;;;;;;2056374;28;20477;-82
2023/08/16 01:31:40;;;;;;;8.03;6.90;;;17.60;99.90;;;;;;2056763;28;20480;-82
2023/08/16 01:32:42;;;;;;;7.93;6.87;;;17.60;99.90;;;;;;2068530;28;20478;-83
2023/08/16 01:33:42;;;;;;;7.87;6.37;;;17.50;99.90;;;;;;2077869;28;20236;-82
2023/08/16 01:34:43;;;;;;;8.33;6.80;;;17.50;99.90;;;;;;2071861;28;20529;-83
2023/08/16 01:35:44;;;;;;;9.93;7.37;;;17.50;99.90;;;;;;2064320;28;20238;-82
2023/08/16 01:36:44;;;;;;;7.60;6.87;;;17.60;99.90;;;;;;2059621;28;20253;-81
2023/08/16 01:37:45;;;;;;;10.23;6.63;;;17.60;99.90;;;;;;2069832;28;20237;-81
2023/08/16 01:38:46;;;;;;;7.47;6.67;;;17.60;99.90;;;;;;2067742;28;20230;-82
2023/08/16 01:39:50;;;;;;;7.30;6.40;;;17.60;99.90;;;;;;2061611;28;20234;-82
2023/08/16 01:41:05;;;;;;;8.33;6.50;;;17.60;99.90;;;;;;2067760;28;20467;-82
2023/08/16 01:42:13;;;;;;;7.40;5.93;;;17.50;99.90;;;;;;2072741;28;20530;-81
2023/08/16 01:43:16;;;;;;;6.83;5.97;;;17.60;99.90;;;;;;2068322;28;20427;-82
2023/08/16 01:44:19;;;;;;;8.10;7.17;;;17.50;99.90;;;;;;2068523;28;20478;-83
2023/08/16 01:45:20;;;;;;;9.97;6.47;;;17.60;99.90;;;;;;2063319;28;20519;-81
2023/08/16 01:46:23;;;;;;;8.07;6.63;;;17.50;99.90;;;;;;2055798;28;20508;-82
2023/08/16 01:47:24;;;;;;;9.47;6.83;;;17.50;99.90;;;;;;2059214;28;20466;-82
2023/08/16 01:48:26;;;;;;;7.13;6.43;;;17.40;99.90;;;;;;2053021;28;20484;-81
2023/08/16 01:49:27;;;;;;;9.30;6.73;;;17.40;99.90;;;;;;2063988;28;20464;-81
2023/08/16 01:50:28;;;;;;;10.20;7.30;;;17.50;99.90;;;;;;2072178;28;20482;-82
2023/08/16 01:51:29;;;;;;;9.13;7.13;;;17.40;99.90;;;;;;2075302;28;20489;-81
2023/08/16 01:52:29;;;;;;;9.30;7.17;;;17.40;99.90;;;;;;2070387;28;20587;-82
2023/08/16 01:53:35;;;;;;;8.77;6.83;;;17.40;99.90;;;;;;2075908;28;20221;-82
2023/08/16 01:54:35;;;;;;;9.70;6.50;;;17.40;99.90;;;;;;2068273;28;20281;-82
2023/08/16 01:55:36;;;;;;;10.43;7.00;;;17.50;99.90;;;;;;2069947;28;20464;-81
2023/08/16 01:56:37;;;;;;;9.37;6.83;;;17.50;99.90;;;;;;2069589;28;20262;-82
2023/08/16 01:57:38;;;;;;;7.80;7.00;;;17.40;99.90;;;;;;2062408;28;20246;-81
2023/08/16 01:58:38;;;;;;;9.30;6.63;;;17.30;99.90;;;;;;2074140;28;20308;-81
2023/08/16 01:59:39;;;;;;;9.87;7.30;;;17.30;99.90;;;;;;2064168;28;20230;-83
2023/08/16 02:00:40;;;;;;;8.60;7.37;;;17.30;99.90;;;;;;2063953;28;20702;-82
2023/08/16 02:01:40;;;;;;;11.50;7.90;;;17.20;99.90;;;;;;2069058;28;20233;-82
2023/08/16 02:02:41;;;;;;;7.87;7.03;;;17.30;99.90;;;;;;2056024;28;20261;-82
2023/08/16 02:03:42;;;;;;;8.90;7.50;;;17.30;99.90;;;;;;2054991;28;20242;-83
2023/08/16 02:04:43;;;;;;;8.83;7.93;;;17.30;99.90;;;;;;2061740;28;20464;-83
2023/08/16 02:05:43;;;;;;;8.93;7.00;;;17.30;99.90;;;;;;2056798;28;20231;-82
2023/08/16 02:06:44;;;;;;;9.43;7.13;;;17.30;99.90;;;;;;2075595;28;20313;-80
2023/08/16 02:07:45;;;;;;;8.50;7.13;;;17.40;99.90;;;;;;2067937;28;20252;-81
2023/08/16 02:08:46;;;;;;;7.53;6.67;;;17.30;99.90;;;;;;2056049;28;20238;-82
2023/08/16 02:09:46;;;;;;;10.47;6.30;;;17.30;99.90;;;;;;2059196;28;20242;-82
2023/08/16 02:10:47;;;;;;;7.87;7.03;;;17.40;99.90;;;;;;2056778;28;20257;-82
2023/08/16 02:11:48;;;;;;;8.33;6.90;;;17.30;99.90;;;;;;2068401;28;20226;-83
2023/08/16 02:12:48;;;;;;;8.93;7.23;;;17.50;99.90;;;;;;2079464;28;20231;-83
2023/08/16 02:13:49;;;;;;;10.23;6.80;;;17.40;99.90;;;;;;2071939;28;20279;-82
2023/08/16 02:14:50;;;;;;;8.77;7.57;;;17.50;99.90;;;;;;2071032;28;20335;-85
2023/08/16 02:15:59;;;;;;;7.80;7.00;;;17.30;99.90;;;;;;2067820;28;20308;-82
2023/08/16 02:17:00;;;;;;;7.63;6.50;;;17.20;99.90;;;;;;2075171;28;20303;-83
2023/08/16 02:18:02;;;;;;;8.23;7.03;;;17.20;99.90;;;;;;2075809;28;20533;-82
2023/08/16 02:19:02;;;;;;;7.47;6.77;;;17.10;99.90;;;;;;2077360;28;20205;-83
2023/08/16 02:20:05;;;;;;;8.43;6.67;;;17.10;99.90;;;;;;2077820;28;20449;-83
2023/08/16 02:21:06;;;;;;;8.47;6.33;;;17.20;99.90;;;;;;2071151;28;20178;-83
2023/08/16 02:22:07;;;;;;;8.27;7.03;;;17.30;99.90;;;;;;2068187;28;20466;-82
2023/08/16 02:23:08;;;;;;;7.23;5.93;;;17.30;99.90;;;;;;2064393;28;20179;-82
2023/08/16 02:24:09;;;;;;;8.73;5.90;;;17.20;99.90;;;;;;2071523;28;20214;-81
2023/08/16 02:25:12;;;;;;;6.60;5.90;;;17.30;99.90;;;;;;2067625;28;20490;-82
2023/08/16 02:26:12;;;;;;;6.80;5.43;;;17.20;99.90;;;;;;2067951;28;20183;-83
2023/08/16 02:27:13;;;;;;;8.07;5.83;;;17.20;99.90;;;;;;2071362;28;20453;-82
2023/08/16 02:28:14;;;;;;;7.03;6.00;;;17.20;99.90;;;;;;2070655;28;20209;-83
2023/08/16 02:29:15;;;;;;;9.60;6.73;;;17.20;99.90;;;;;;2071255;28;20217;-83
2023/08/16 02:30:15;;;;;;;7.17;6.47;;;17.10;99.90;;;;;;2063876;28;20232;-82
2023/08/16 02:31:16;;;;;;;8.10;7.30;;;17.20;99.90;;;;;;2076312;28;20190;-82
2023/08/16 02:32:18;;;;;;;10.10;7.27;;;17.10;99.90;;;;;;2071287;28;20200;-82
2023/08/16 02:33:19;;;;;;;7.60;6.77;;;17.20;99.90;;;;;;2067871;28;20518;-83
2023/08/16 02:34:19;;;;;;;8.17;7.30;;;17.20;99.90;;;;;;2076155;28;20434;-82
2023/08/16 02:35:21;;;;;;;9.73;7.27;;;17.30;99.90;;;;;;2075584;28;20192;-83
2023/08/16 02:36:22;;;;;;;8.83;6.90;;;17.10;99.90;;;;;;2069731;28;20255;-83
2023/08/16 02:37:23;;;;;;;7.93;6.87;;;17.20;99.90;;;;;;2067627;28;20475;-82
2023/08/16 02:38:24;;;;;;;9.40;7.73;;;17.20;99.90;;;;;;2051530;28;20725;-83
2023/08/16 02:39:25;;;;;;;10.60;7.87;;;17.20;99.90;;;;;;2063667;28;20480;-82
2023/08/16 02:40:26;;;;;;;8.10;6.83;;;17.20;99.90;;;;;;2063090;28;20230;-83
2023/08/16 02:41:26;;;;;;;9.03;7.07;;;17.20;99.90;;;;;;2071477;28;20541;-83
2023/08/16 02:42:27;;;;;;;8.10;7.30;;;17.20;99.90;;;;;;2071047;28;20517;-81
2023/08/16 02:43:28;;;;;;;10.87;8.30;;;17.20;99.90;;;;;;2069143;28;20233;-82
2023/08/16 02:44:28;;;;;;;10.07;8.03;;;17.30;99.90;;;;;;2073042;28;20280;-83
2023/08/16 02:45:30;;;;;;;10.93;7.30;;;17.40;99.90;;;;;;2071781;28;20241;-83
2023/08/16 02:46:30;;;;;;;8.77;7.33;;;17.30;99.90;;;;;;2070254;28;20233;-83
2023/08/16 02:47:31;;;;;;;8.67;6.67;;;17.30;99.90;;;;;;2069574;28;20467;-83
2023/08/16 02:48:32;;;;;;;7.90;6.87;;;17.30;99.90;;;;;;2068573;28;20241;-83
2023/08/16 02:49:32;;;;;;;8.13;7.00;;;17.30;99.90;;;;;;2069629;28;20233;-83
2023/08/16 02:50:33;;;;;;;12.83;7.33;;;17.30;99.90;;;;;;2070484;28;20232;-83
2023/08/16 02:51:34;;;;;;;10.03;6.87;;;17.30;99.90;;;;;;2054841;28;20234;-82
2023/08/16 02:52:35;;;;;;;8.13;6.60;;;17.20;99.90;;;;;;2055117;28;20297;-83
2023/08/16 02:53:36;;;;;;;11.27;6.50;;;17.30;99.90;;;;;;2063237;28;20225;-82
2023/08/16 02:54:36;;;;;;;8.10;6.67;;;17.20;99.90;;;;;;2068817;28;20470;-83
2023/08/16 02:55:39;;;;;;;7.37;6.17;;;17.20;99.90;;;;;;2068144;28;20233;-83
2023/08/16 02:56:40;;;;;;;7.57;5.87;;;17.10;99.90;;;;;;2068389;28;20240;-82
2023/08/16 02:57:40;;;;;;;10.23;5.93;;;17.10;99.90;;;;;;2067885;28;20555;-83
2023/08/16 02:58:41;;;;;;;6.13;5.53;;;17.00;99.90;;;;;;2058562;28;20230;-82
2023/08/16 02:59:47;;;;;;;9.40;6.57;;;17.00;99.90;;;;;;2069978;28;20222;-83
2023/08/16 03:00:50;;;;;;;7.77;6.47;;;16.90;99.90;;;;;;2070134;28;20264;-83
2023/08/16 03:01:51;;;;;;;11.03;7.13;;;17.00;99.90;;;;;;2071395;28;20506;-82
2023/08/16 03:02:51;;;;;;;8.67;6.80;;;16.90;99.90;;;;;;2064892;28;20471;-83
2023/08/16 03:03:52;;;;;;;12.37;7.53;;;16.90;99.90;;;;;;2071473;28;20242;-83
2023/08/16 03:04:53;;;;;;;12.43;8.53;;;16.90;99.90;;;;;;2072025;28;20228;-82
2023/08/16 03:05:54;;;;;;;9.57;7.77;;;16.90;99.90;;;;;;2054682;28;20354;-82
2023/08/16 03:06:54;;;;;;;11.27;7.93;;;16.70;99.90;;;;;;2056003;28;20227;-82
2023/08/16 03:07:55;;;;;;;9.33;7.47;;;16.70;99.90;;;;;;2065364;28;20872;-82
2023/08/16 03:08:56;;;;;;;10.07;7.93;;;16.80;99.90;;;;;;2073267;28;20241;-82
2023/08/16 03:09:56;;;;;;;11.57;9.00;;;16.80;99.90;;;;;;2074583;28;20705;-83
2023/08/16 03:10:57;;;;;;;8.30;7.50;;;16.90;99.90;;;;;;2073442;28;20229;-83
2023/08/16 03:11:58;;;;;;;8.70;7.30;;;16.80;99.90;;;;;;2068846;28;20706;-83
2023/08/16 03:12:58;;;;;;;7.67;6.33;;;16.90;99.90;;;;;;2075330;28;20241;-83
2023/08/16 03:13:59;;;;;;;7.80;7.00;;;17.00;99.90;;;;;;2078395;28;20253;-83
2023/08/16 03:15:00;;;;;;;9.97;7.63;;;17.00;99.90;;;;;;2072139;28;20290;-82
2023/08/16 03:16:00;;;;;;;7.30;6.47;;;16.90;99.90;;;;;;2062070;28;20245;-83
2023/08/16 03:17:01;;;;;;;7.53;6.17;;;16.90;99.90;;;;;;2068371;28;20217;-82
2023/08/16 03:18:02;;;;;;;7.10;6.40;;;16.80;99.90;;;;;;2071682;28;20182;-81
2023/08/16 03:19:03;;;;;;;10.10;7.07;;;16.70;99.90;;;;;;2079111;28;20656;-82
2023/08/16 03:20:07;;;;;;;8.43;6.17;;;16.70;99.90;;;;;;2071561;28;20428;-81
2023/08/16 03:21:08;;;;;;;9.70;6.33;;;16.60;99.90;;;;;;2062858;28;20182;-82
2023/08/16 03:22:08;;;;;;;7.00;6.30;;;16.60;99.90;;;;;;2064137;28;20834;-82
2023/08/16 03:23:09;;;;;;;8.07;7.03;;;16.60;99.90;;;;;;2069138;28;20212;-82
2023/08/16 03:24:10;;;;;;;8.60;6.50;;;16.50;99.90;;;;;;2054947;28;20965;-82
2023/08/16 03:25:10;;;;;;;8.00;7.00;;;16.40;99.90;;;;;;2064100;28;20186;-83
2023/08/16 03:26:11;;;;;;;9.00;7.43;;;16.40;99.90;;;;;;2067911;28;20186;-83
2023/08/16 03:27:12;;;;;;;9.90;7.37;;;16.40;99.90;;;;;;2064695;28;20575;-82
2023/08/16 03:28:13;;;;;;;8.10;6.60;;;16.40;99.90;;;;;;2071717;28;20189;-82
2023/08/16 03:29:14;;;;;;;8.40;7.10;;;16.40;99.90;;;;;;2063479;28;20924;-82
2023/08/16 03:30:14;;;;;;;8.80;7.37;;;16.50;99.90;;;;;;2047419;28;20212;-83
2023/08/16 03:31:15;;;;;;;8.23;7.17;;;16.60;99.90;;;;;;2055520;28;20191;-83
2023/08/16 03:32:16;;;;;;;8.23;7.00;;;16.70;99.90;;;;;;2071021;28;20185;-83
2023/08/16 03:33:16;;;;;;;9.93;7.87;;;16.70;99.90;;;;;;2070275;28;20220;-83
2023/08/16 03:34:17;;;;;;;9.90;7.20;;;16.90;99.90;;;;;;2054988;28;20190;-83
2023/08/16 03:35:18;;;;;;;8.40;7.47;;;16.80;99.90;;;;;;2064169;28;20191;-83
2023/08/16 03:36:18;;;;;;;9.23;7.33;;;16.80;99.90;;;;;;2071263;28;20212;-82
2023/08/16 03:37:19;;;;;;;8.63;7.33;;;16.80;99.90;;;;;;2071360;28;20239;-82
2023/08/16 03:38:20;;;;;;;12.10;7.63;;;16.90;99.90;;;;;;2070866;28;20204;-83
2023/08/16 03:39:20;;;;;;;10.70;8.17;;;16.80;99.90;;;;;;2077677;28;20430;-83
2023/08/16 03:40:21;;;;;;;8.10;7.27;;;16.90;99.90;;;;;;2066548;28;20241;-82
2023/08/16 03:41:22;;;;;;;10.80;7.53;;;17.00;99.90;;;;;;2064557;28;20313;-83
2023/08/16 03:42:23;;;;;;;8.20;7.20;;;16.90;99.90;;;;;;2063701;28;20351;-82
2023/08/16 03:43:23;;;;;;;10.60;7.90;;;17.00;99.90;;;;;;2055061;28;20234;-82
2023/08/16 03:44:24;;;;;;;8.17;7.33;;;16.90;99.90;;;;;;2062816;28;20241;-83
2023/08/16 03:45:26;;;;;;;9.60;8.07;;;17.00;99.90;;;;;;2071539;28;20316;-82
2023/08/16 03:46:27;;;;;;;8.93;7.87;;;17.00;99.90;;;;;;2071440;28;20229;-83
2023/08/16 03:47:29;;;;;;;9.53;7.57;;;17.00;99.90;;;;;;2071516;28;20467;-83
2023/08/16 03:48:30;;;;;;;11.93;6.77;;;16.90;99.90;;;;;;2066601;28;20656;-82
2023/08/16 03:49:31;;;;;;;9.43;7.90;;;16.80;99.90;;;;;;2067447;28;20569;-82
2023/08/16 03:50:31;;;;;;;8.50;7.60;;;16.80;99.90;;;;;;2067231;28;20614;-82
2023/08/16 03:51:32;;;;;;;9.07;8.17;;;17.00;99.90;;;;;;2065828;28;20250;-82
2023/08/16 03:52:33;;;;;;;9.13;7.27;;;17.00;99.90;;;;;;2059416;28;20234;-82
2023/08/16 03:53:34;;;;;;;8.43;7.47;;;17.10;99.90;;;;;;2061357;28;21224;-81
2023/08/16 03:54:35;;;;;;;8.57;7.57;;;17.10;99.90;;;;;;2054416;28;20847;-80
2023/08/16 03:55:35;;;;;;;10.13;7.43;;;17.20;99.90;;;;;;2069639;28;20233;-80
2023/08/16 03:56:36;;;;;;;10.67;7.67;;;17.40;99.90;;;;;;2070720;28;20225;-81
2023/08/16 03:57:37;;;;;;;10.17;7.13;;;17.30;99.90;;;;;;2063006;28;20230;-81
2023/08/16 03:58:37;;;;;;;9.53;7.00;;;17.40;99.90;;;;;;2061418;28;20605;-82
2023/08/16 03:59:38;;;;;;;11.43;7.67;;;17.50;99.90;;;;;;2059686;28;20252;-82
2023/08/16 04:00:40;;;;;;;10.90;7.60;;;17.50;99.90;;;;;;2061660;28;20226;-82
2023/08/16 04:01:41;;;;;;;8.50;7.13;;;17.40;99.90;;;;;;2070584;28;20229;-82
2023/08/16 04:02:42;;;;;;;9.33;7.57;;;17.60;99.90;;;;;;2070869;28;20527;-82
2023/08/16 04:03:43;;;;;;;9.27;7.70;;;17.50;99.90;;;;;;2062169;28;20312;-82
2023/08/16 04:04:45;;;;;;;9.57;7.97;;;17.40;99.90;;;;;;2062292;28;20783;-82
2023/08/16 04:05:46;;;;;;;8.83;7.93;;;17.30;99.90;;;;;;2070262;28;20475;-82
2023/08/16 04:06:47;;;;;;;8.23;7.43;;;17.40;99.90;;;;;;2061421;28;20475;-82
2023/08/16 04:07:48;;;;;;;9.87;8.17;;;17.40;99.90;;;;;;2052030;28;20528;-83
2023/08/16 04:08:49;;;;;;;15.37;7.43;;;17.40;99.90;;;;;;2059263;28;20266;-82
2023/08/16 04:09:50;;;;;;;9.23;8.17;;;17.40;99.90;;;;;;2063540;28;20292;-82
2023/08/16 04:10:50;;;;;;;10.10;7.57;;;17.40;99.90;;;;;;2065860;28;20559;-81
2023/08/16 04:11:51;;;;;;;10.03;8.00;;;17.50;99.90;;;;;;2057514;28;20318;-82
2023/08/16 04:12:52;;;;;;;9.63;7.53;;;17.50;99.90;;;;;;2056062;28;20237;-82
2023/08/16 04:13:53;;;;;;;12.83;8.07;;;17.50;99.90;;;;;;2062721;28;20620;-82
2023/08/16 04:14:53;;;;;;;11.43;7.67;;;17.50;99.90;;;;;;2062972;28;20229;-82
2023/08/16 04:15:54;;;;;;;9.80;7.23;;;17.50;99.90;;;;;;2064132;28;20311;-81
2023/08/16 04:16:55;;;;;;;9.93;7.07;;;17.50;99.90;;;;;;2067424;28;20241;-82
2023/08/16 04:17:55;;;;;;;9.33;7.40;;;17.60;99.90;;;;;;2066069;28;20290;-82
2023/08/16 04:18:56;;;;;;;10.17;7.67;;;17.60;99.90;;;;;;2062038;28;20226;-82
2023/08/16 04:19:57;;;;;;;9.13;7.47;;;17.60;99.90;;;;;;2052416;28;20231;-82
2023/08/16 04:20:57;;;;;;;9.50;7.17;;;17.50;99.90;;;;;;2059715;28;20301;-82
2023/08/16 04:21:58;;;;;;;9.37;7.67;;;17.50;99.90;;;;;;2068007;28;20232;-82
2023/08/16 04:22:59;;;;;;;8.80;6.87;;;17.50;99.90;;;;;;2067384;28;20233;-82
2023/08/16 04:24:00;;;;;;;8.00;7.10;;;17.60;99.90;;;;;;2063016;28;20610;-82
2023/08/16 04:25:01;;;;;;;9.07;7.40;;;17.50;99.90;;;;;;2061664;28;20463;-81
2023/08/16 04:26:02;;;;;;;9.27;8.13;;;17.50;99.90;;;;;;2054792;28;20301;-82
2023/08/16 04:27:03;;;;;;;10.63;7.97;;;17.50;99.90;;;;;;2054755;28;20433;-82
2023/08/16 04:28:04;;;;;;;8.57;7.70;;;17.40;99.90;;;;;;2062262;28;20224;-83
2023/08/16 04:29:05;;;;;;;10.60;8.13;;;17.50;99.90;;;;;;2070979;28;20443;-81
2023/08/16 04:30:07;;;;;;;10.13;7.23;;;17.60;99.90;;;;;;2071039;28;20431;-81
2023/08/16 04:31:08;;;;;;;12.37;8.57;;;17.60;99.90;;;;;;2083666;28;20181;-82
2023/08/16 04:32:09;;;;;;;11.10;7.50;;;17.60;99.90;;;;;;2064988;28;20512;-82
2023/08/16 04:33:10;;;;;;;10.17;8.37;;;17.70;99.90;;;;;;2063589;28;20734;-81
2023/08/16 04:34:10;;;;;;;10.13;8.20;;;17.70;99.90;;;;;;2062163;28;20200;-82
2023/08/16 04:35:11;;;;;;;8.90;7.73;;;17.80;99.90;;;;;;2068880;28;20236;-82
2023/08/16 04:36:12;;;;;;;8.93;8.03;;;17.70;99.90;;;;;;2067175;28;20189;-83
2023/08/16 04:37:12;;;;;;;11.23;8.20;;;17.70;99.90;;;;;;2071475;28;20189;-83
2023/08/16 04:38:14;;;;;;;8.73;7.53;;;17.80;99.90;;;;;;2063556;28;20273;-81
2023/08/16 04:39:15;;;;;;;8.77;7.43;;;17.80;99.90;;;;;;2067462;28;20214;-82
2023/08/16 04:40:16;;;;;;;8.80;7.80;;;17.70;99.90;;;;;;2070995;28;20430;-82
2023/08/16 04:41:17;;;;;;;9.87;7.90;;;17.80;99.90;;;;;;2067520;28;20672;-82
2023/08/16 04:42:18;;;;;;;11.50;7.67;;;17.80;99.90;;;;;;2067356;28;20185;-82
2023/08/16 04:43:19;;;;;;;10.47;7.73;;;17.80;99.90;;;;;;2054565;28;20265;-82
2023/08/16 04:44:20;;;;;;;10.67;8.13;;;17.80;99.90;;;;;;2045273;28;20437;-81
2023/08/16 04:45:21;;;;;;;9.93;8.20;;;17.90;99.90;;;;;;2061974;28;20261;-83
2023/08/16 04:46:21;;;;;;;12.10;7.47;;;17.80;99.90;;;;;;2078730;28;20427;-81
2023/08/16 04:47:22;;;;;;;7.63;6.37;;;17.80;99.90;;;;;;2075349;28;20237;-82
2023/08/16 04:48:23;;;;;;;10.50;7.77;;;17.80;99.90;;;;;;2058464;28;20230;-82
2023/08/16 04:49:26;;;;;;;9.00;7.27;;;17.80;99.90;;;;;;2063236;28;20317;-82
2023/08/16 04:50:27;;;;;;;8.40;6.20;;;17.80;99.90;;;;;;2068109;28;20229;-83
2023/08/16 04:51:28;;;;;;;7.87;7.00;;;17.80;99.90;;;;;;2070807;28;20525;-82
2023/08/16 04:52:29;;;;;;;7.87;6.93;;;17.80;99.90;;;;;;2078219;28;20239;-83
2023/08/16 04:53:29;;;;;;;7.40;6.60;;;17.70;99.90;;;;;;2078280;28;20668;-82
2023/08/16 04:54:30;;;;;;;9.00;6.70;;;17.80;99.90;;;;;;2063114;28;20534;-82
2023/08/16 04:55:31;;;;;;;7.33;6.07;;;17.80;99.90;;;;;;2062396;28;20322;-82
2023/08/16 04:56:31;;;;;;;8.67;6.40;;;17.80;99.90;;;;;;2068749;28;20237;-82
2023/08/16 04:57:32;;;;;;;7.80;6.23;;;17.70;99.90;;;;;;2069194;28;20260;-82
2023/08/16 04:58:33;;;;;;;7.83;5.97;;;17.90;99.90;;;;;;2066220;28;20308;-83
2023/08/16 04:59:33;;;;;;;8.97;6.73;;;17.80;99.90;;;;;;2069054;28;20268;-82
2023/08/16 05:00:34;;;;;;;8.00;6.07;;;17.70;99.90;;;;;;2069490;28;20225;-83
2023/08/16 05:01:36;;;;;;;7.03;5.63;;;17.70;99.90;;;;;;2069028;28;20238;-82
2023/08/16 05:02:36;;;;;;;7.57;6.27;;;17.70;99.90;;;;;;2067915;28;20233;-82
2023/08/16 05:03:37;;;;;;;7.10;6.27;;;17.60;99.90;;;;;;2059539;28;20483;-83
2023/08/16 05:04:38;;;;;;;7.70;6.50;;;17.70;99.90;;;;;;2070394;28;20230;-81
2023/08/16 05:05:39;;;;;;;8.60;6.77;;;17.70;99.90;;;;;;2063615;28;20485;-81
2023/08/16 05:06:40;;;;;;;8.70;7.13;;;17.60;99.90;;;;;;2072332;28;20230;-81
2023/08/16 05:07:40;;;;;;;9.10;6.80;;;17.70;99.90;;;;;;2085157;28;20229;-82
2023/08/16 05:08:41;;;;;;;8.20;6.40;;;17.60;99.90;;;;;;2076870;28;20229;-82
2023/08/16 05:09:42;;;;;;;7.80;6.47;;;17.60;99.90;;;;;;2059756;28;20588;-82
2023/08/16 05:10:42;;;;;;;7.70;6.73;;;17.60;99.90;;;;;;2063885;28;20718;-83
2023/08/16 05:11:43;;;;;;;8.53;6.77;;;17.60;99.90;;;;;;2080622;28;20229;-82
2023/08/16 05:12:44;;;;;;;8.73;6.33;;;17.40;99.90;;;;;;2072445;28;20236;-82
2023/08/16 05:13:44;;;;;;;9.10;6.70;;;17.40;99.90;;;;;;2071599;28;20265;-83
2023/08/16 05:14:45;;;;;;;8.20;7.30;;;17.20;99.90;;;;;;2071986;28;20261;-82
2023/08/16 05:15:46;;;;;;;7.97;6.23;;;17.20;99.90;;;;;;2073310;28;20236;-82
2023/08/16 05:16:46;;;;;;;10.87;7.17;;;17.20;99.90;;;;;;2071676;28;20679;-83
2023/08/16 05:17:47;;;;;;;6.87;5.77;;;17.30;99.90;;;;;;2060305;28;20234;-81
2023/08/16 05:18:48;;;;;;;6.77;6.17;;;17.40;99.90;;;;;;2073755;28;20291;-83
2023/08/16 05:19:49;;;;;;;8.43;7.17;;;17.40;99.90;;;;;;2065473;28;20233;-83